Time;durP1;ratioP1;P1;durP2;ratioP2;P2;SDS_P1;SDS_P2;PMS_P1;PMS_P2;Temp;Humidity;BMP_temperature;BMP_pressure;BME280_temperature;BME280_humidity;BME280_pressure;Samples;Min_cycle;Max_cycle;Signal;HPM_P1;HPM_P2
2021/01/07 00:01:23;;;;;;;8.93;5.80;;;4.40;99.90;;;;;;5045205;28;20223;-82
2021/01/07 00:03:50;;;;;;;10.93;5.53;;;4.20;99.90;;;;;;5048844;28;20207;-80
2021/01/07 00:06:17;;;;;;;8.52;6.10;;;4.30;99.90;;;;;;5050759;28;20203;-82
2021/01/07 00:08:44;;;;;;;8.32;5.95;;;4.10;99.90;;;;;;5045703;28;20199;-83
2021/01/07 00:11:11;;;;;;;9.30;6.10;;;4.10;99.90;;;;;;5034718;28;20231;-83
2021/01/07 00:13:38;;;;;;;6.97;5.10;;;4.30;99.90;;;;;;5035904;28;20234;-83
2021/01/07 00:16:06;;;;;;;8.77;6.25;;;4.30;99.90;;;;;;5037867;28;20202;-83
2021/01/07 00:18:33;;;;;;;9.00;6.15;;;4.30;99.90;;;;;;5038093;28;20218;-84
2021/01/07 00:21:00;;;;;;;9.63;6.22;;;4.00;99.90;;;;;;5037393;28;20238;-85
2021/01/07 00:23:27;;;;;;;8.20;5.65;;;4.10;99.90;;;;;;5038178;28;20207;-83
2021/01/07 00:25:55;;;;;;;6.78;4.60;;;4.10;99.90;;;;;;5038666;28;20214;-83
2021/01/07 00:28:24;;;;;;;10.07;5.78;;;3.90;99.90;;;;;;5048281;28;20215;-83
2021/01/07 00:30:51;;;;;;;7.55;5.10;;;4.30;99.90;;;;;;5055838;28;20271;-82
2021/01/07 00:33:18;;;;;;;7.88;5.85;;;4.10;99.90;;;;;;5045946;28;20607;-83
2021/01/07 00:35:45;;;;;;;8.63;6.05;;;4.10;99.90;;;;;;5039226;28;20727;-81
2021/01/07 00:38:13;;;;;;;8.45;5.78;;;4.10;99.90;;;;;;5038599;28;20196;-83
2021/01/07 00:40:39;;;;;;;8.98;5.60;;;4.20;99.90;;;;;;5038898;28;20207;-83
2021/01/07 00:43:06;;;;;;;9.45;5.70;;;4.20;99.90;;;;;;5037771;28;20218;-83
2021/01/07 00:45:33;;;;;;;8.77;6.20;;;4.10;99.90;;;;;;5038687;28;20222;-85
2021/01/07 00:48:00;;;;;;;7.85;5.93;;;4.20;99.90;;;;;;5038250;28;20253;-84
2021/01/07 00:50:27;;;;;;;8.77;5.35;;;4.20;99.90;;;;;;5039200;28;20214;-84
2021/01/07 00:52:53;;;;;;;8.30;5.90;;;4.00;99.90;;;;;;5038881;28;20234;-84
2021/01/07 00:55:21;;;;;;;8.15;5.75;;;4.00;99.90;;;;;;5038596;28;20214;-84
2021/01/07 00:57:47;;;;;;;9.80;5.80;;;4.10;99.90;;;;;;5039389;28;20222;-84
2021/01/07 01:00:18;;;;;;;9.93;5.47;;;3.90;99.90;;;;;;5039263;28;20258;-84
2021/01/07 01:02:45;;;;;;;9.60;5.82;;;4.10;99.90;;;;;;5038592;28;20222;-82
2021/01/07 01:05:13;;;;;;;11.10;7.40;;;4.00;99.90;;;;;;5038183;28;20230;-82
2021/01/07 01:07:40;;;;;;;9.65;6.53;;;4.00;99.90;;;;;;5037148;28;20211;-82
2021/01/07 01:10:07;;;;;;;10.07;6.53;;;4.20;99.90;;;;;;5037069;28;20580;-81
2021/01/07 01:12:35;;;;;;;9.35;6.60;;;4.10;99.90;;;;;;5038474;28;20223;-82
2021/01/07 01:15:04;;;;;;;9.85;6.78;;;4.00;99.90;;;;;;5039028;28;20253;-80
2021/01/07 01:17:32;;;;;;;10.38;7.63;;;4.10;99.90;;;;;;5038078;28;20234;-83
2021/01/07 01:19:59;;;;;;;10.25;7.38;;;4.00;99.90;;;;;;5040766;28;20227;-82
2021/01/07 01:22:31;;;;;;;11.02;6.65;;;4.00;99.90;;;;;;5041585;28;20242;-82
2021/01/07 01:24:59;;;;;;;12.40;7.05;;;3.90;99.90;;;;;;5042993;28;20229;-82
2021/01/07 01:27:25;;;;;;;8.10;5.97;;;4.00;99.90;;;;;;5041738;28;20740;-81
2021/01/07 01:29:53;;;;;;;9.48;7.18;;;4.00;99.90;;;;;;5040586;28;20249;-81
2021/01/07 01:32:19;;;;;;;9.32;6.93;;;3.90;99.90;;;;;;5036314;28;20227;-82
2021/01/07 01:34:46;;;;;;;10.10;7.10;;;4.10;99.90;;;;;;5036591;28;20306;-84
2021/01/07 01:37:13;;;;;;;11.63;8.25;;;4.10;99.90;;;;;;5037045;28;20242;-83
2021/01/07 01:39:39;;;;;;;10.75;6.75;;;4.20;99.90;;;;;;5037671;28;20214;-83
2021/01/07 01:42:06;;;;;;;10.10;7.00;;;4.10;99.90;;;;;;5039352;28;20222;-82
2021/01/07 01:44:33;;;;;;;11.07;7.15;;;4.00;99.90;;;;;;5039330;28;20207;-80
2021/01/07 01:47:00;;;;;;;11.30;6.03;;;4.00;99.90;;;;;;5036984;28;20326;-81
2021/01/07 01:49:27;;;;;;;8.52;6.07;;;4.10;99.90;;;;;;5039415;28;20508;-81
2021/01/07 01:51:55;;;;;;;12.13;7.60;;;4.20;99.90;;;;;;5039210;28;20694;-82
2021/01/07 01:54:21;;;;;;;9.40;6.70;;;4.10;99.90;;;;;;5039027;28;20235;-82
2021/01/07 01:56:52;;;;;;;8.07;5.72;;;4.20;99.90;;;;;;5035512;28;20275;-81
2021/01/07 01:59:23;;;;;;;9.55;6.10;;;4.10;99.90;;;;;;5035070;28;20221;-83
2021/01/07 02:01:50;;;;;;;7.90;6.05;;;4.30;99.90;;;;;;5036743;28;20219;-83
2021/01/07 02:04:17;;;;;;;8.70;5.90;;;4.20;99.90;;;;;;5025836;28;20204;-83
2021/01/07 02:06:46;;;;;;;9.20;6.38;;;4.30;99.90;;;;;;5041783;28;20246;-82
2021/01/07 02:09:14;;;;;;;10.40;6.78;;;4.10;99.90;;;;;;5040762;28;20592;-83
2021/01/07 02:11:42;;;;;;;10.13;6.65;;;4.20;99.90;;;;;;5040815;28;20219;-83
2021/01/07 02:14:09;;;;;;;10.57;7.00;;;4.00;99.90;;;;;;5038063;28;20221;-82
2021/01/07 02:16:35;;;;;;;9.20;6.25;;;4.20;99.90;;;;;;5034874;28;20241;-83
2021/01/07 02:19:02;;;;;;;9.30;6.35;;;4.10;99.90;;;;;;5034156;28;20204;-82
2021/01/07 02:21:36;;;;;;;9.70;7.10;;;4.20;99.90;;;;;;5034104;28;20665;-84
2021/01/07 02:24:03;;;;;;;10.45;6.88;;;4.30;99.90;;;;;;5033875;28;20198;-85
2021/01/07 02:26:30;;;;;;;10.27;6.93;;;4.20;99.90;;;;;;5033800;28;20214;-82
2021/01/07 02:28:56;;;;;;;10.27;7.00;;;4.30;99.90;;;;;;5035782;28;20200;-83
2021/01/07 02:31:23;;;;;;;11.63;7.45;;;4.30;99.90;;;;;;5035747;28;20278;-81
2021/01/07 02:33:49;;;;;;;9.10;7.13;;;4.30;99.90;;;;;;5034893;28;20223;-83
2021/01/07 02:36:16;;;;;;;9.63;6.60;;;4.10;99.90;;;;;;5033782;28;20214;-83
2021/01/07 02:38:43;;;;;;;9.80;7.10;;;4.10;99.90;;;;;;5034185;28;20217;-82
2021/01/07 02:41:11;;;;;;;9.38;6.35;;;4.10;99.90;;;;;;5034262;28;20242;-83
2021/01/07 02:43:38;;;;;;;8.93;6.07;;;4.00;99.90;;;;;;5033135;28;20669;-83
2021/01/07 02:46:05;;;;;;;10.00;6.38;;;4.00;99.90;;;;;;5034455;28;20646;-81
2021/01/07 02:48:31;;;;;;;9.60;6.75;;;4.10;99.90;;;;;;5033733;28;20239;-82
2021/01/07 02:50:58;;;;;;;9.50;5.90;;;4.00;99.90;;;;;;5032569;28;20723;-83
2021/01/07 02:53:24;;;;;;;10.50;6.30;;;4.10;99.90;;;;;;5034220;28;20222;-82
2021/01/07 02:55:52;;;;;;;9.25;5.90;;;4.10;99.90;;;;;;5036555;28;20639;-82
2021/01/07 02:58:19;;;;;;;8.32;6.15;;;3.90;99.90;;;;;;5036148;28;20210;-83
2021/01/07 03:00:45;;;;;;;6.22;5.00;;;4.10;99.90;;;;;;5035673;28;20265;-82
2021/01/07 03:03:12;;;;;;;8.88;6.07;;;4.30;99.90;;;;;;5039433;28;20242;-82
2021/01/07 03:05:38;;;;;;;8.45;5.40;;;4.00;99.90;;;;;;5052507;28;20207;-82
2021/01/07 03:08:06;;;;;;;9.68;6.10;;;3.90;99.90;;;;;;5046300;28;20229;-82
2021/01/07 03:10:32;;;;;;;6.85;5.03;;;4.20;99.90;;;;;;5035319;28;20237;-82
2021/01/07 03:13:00;;;;;;;8.30;5.72;;;4.20;99.90;;;;;;5035402;28;20227;-83
2021/01/07 03:15:26;;;;;;;6.05;4.40;;;4.10;99.90;;;;;;5036401;28;20214;-83
2021/01/07 03:17:53;;;;;;;8.25;5.05;;;4.10;99.90;;;;;;5028536;28;20559;-83
2021/01/07 03:20:20;;;;;;;7.57;4.65;;;4.20;99.90;;;;;;5040273;28;20237;-83
2021/01/07 03:22:46;;;;;;;5.65;3.60;;;4.20;99.90;;;;;;5039572;28;20227;-85
2021/01/07 03:25:13;;;;;;;5.68;3.88;;;4.10;99.90;;;;;;5039711;28;20199;-85
2021/01/07 03:27:40;;;;;;;5.53;3.88;;;4.00;99.90;;;;;;5042437;28;20234;-83
2021/01/07 03:30:09;;;;;;;6.60;4.05;;;4.00;99.90;;;;;;5044369;28;20218;-84
2021/01/07 03:32:35;;;;;;;5.45;3.50;;;4.20;99.90;;;;;;5046829;28;20873;-82
2021/01/07 03:35:02;;;;;;;6.70;4.40;;;3.90;99.90;;;;;;5044859;28;20239;-83
2021/01/07 03:37:29;;;;;;;5.55;4.00;;;4.20;99.90;;;;;;5044586;28;20207;-82
2021/01/07 03:39:56;;;;;;;5.40;3.85;;;3.90;99.90;;;;;;5041083;28;20200;-85
2021/01/07 03:42:22;;;;;;;5.75;3.78;;;4.10;99.90;;;;;;5045854;28;20230;-80
2021/01/07 03:44:49;;;;;;;5.63;4.30;;;4.10;99.90;;;;;;5050163;28;20559;-83
2021/01/07 03:47:16;;;;;;;7.03;3.63;;;4.00;99.90;;;;;;5038870;28;20228;-84
2021/01/07 03:49:44;;;;;;;7.82;3.80;;;3.90;99.90;;;;;;5035837;28;20215;-82
2021/01/07 03:52:11;;;;;;;6.28;3.97;;;3.80;99.90;;;;;;5038944;28;20230;-82
2021/01/07 03:54:37;;;;;;;4.85;4.00;;;3.80;99.90;;;;;;5034940;28;20767;-83
2021/01/07 03:57:06;;;;;;;6.45;4.05;;;3.80;99.90;;;;;;5035782;28;20203;-82
2021/01/07 03:59:32;;;;;;;5.45;4.03;;;3.90;99.90;;;;;;5035793;28;20241;-82
2021/01/07 04:01:59;;;;;;;7.22;4.60;;;3.90;99.90;;;;;;5034058;28;20264;-80
2021/01/07 04:04:26;;;;;;;6.70;3.78;;;3.70;99.90;;;;;;5035160;28;20200;-81
2021/01/07 04:06:53;;;;;;;6.63;4.53;;;4.00;99.90;;;;;;5033965;28;20295;-83
2021/01/07 04:09:20;;;;;;;6.38;3.60;;;3.90;99.90;;;;;;5034520;28;20211;-84
2021/01/07 04:11:46;;;;;;;6.50;4.22;;;4.00;99.90;;;;;;5035087;28;20312;-83
2021/01/07 04:14:13;;;;;;;6.63;4.30;;;4.00;99.90;;;;;;5035095;28;20880;-82
2021/01/07 04:16:39;;;;;;;6.25;4.20;;;3.90;99.90;;;;;;5035227;28;20294;-82
2021/01/07 04:19:06;;;;;;;6.53;4.25;;;4.00;99.90;;;;;;5035533;28;20199;-83
2021/01/07 04:21:44;;;;;;;8.13;4.75;;;3.90;99.90;;;;;;5035038;28;20235;-85
2021/01/07 04:24:12;;;;;;;6.40;3.92;;;3.90;99.90;;;;;;5034818;28;20270;-82
2021/01/07 04:26:40;;;;;;;5.93;4.10;;;3.90;99.90;;;;;;5034980;28;20211;-85
2021/01/07 04:29:07;;;;;;;5.85;4.15;;;3.90;99.90;;;;;;5033950;28;20211;-81
2021/01/07 04:31:34;;;;;;;7.38;4.47;;;3.90;99.90;;;;;;5034505;28;20534;-83
2021/01/07 04:34:00;;;;;;;7.80;4.60;;;3.90;99.90;;;;;;5035127;28;20218;-85
2021/01/07 04:36:27;;;;;;;5.63;3.80;;;3.90;99.90;;;;;;5034879;28;20210;-84
2021/01/07 04:38:55;;;;;;;9.25;4.47;;;3.90;99.90;;;;;;5036184;28;20207;-83
2021/01/07 04:41:22;;;;;;;6.60;4.38;;;3.90;99.90;;;;;;5034831;28;20219;-83
2021/01/07 04:43:54;;;;;;;7.05;4.80;;;4.00;99.90;;;;;;5034452;28;20691;-83
2021/01/07 04:46:20;;;;;;;7.07;4.53;;;4.00;99.90;;;;;;5034810;28;20291;-85
2021/01/07 04:48:48;;;;;;;7.55;4.32;;;4.00;99.90;;;;;;5034856;28;20203;-82
2021/01/07 04:51:15;;;;;;;6.97;4.60;;;4.00;99.90;;;;;;5034645;28;20223;-84
2021/01/07 04:53:42;;;;;;;8.60;4.30;;;3.90;99.90;;;;;;5034953;28;20230;-82
2021/01/07 04:56:10;;;;;;;7.72;4.95;;;3.90;99.90;;;;;;5035174;28;20249;-83
2021/01/07 04:58:36;;;;;;;8.85;5.15;;;3.80;99.90;;;;;;5035695;28;20265;-82
2021/01/07 05:01:03;;;;;;;7.90;5.28;;;4.00;99.90;;;;;;5038142;28;20728;-85
2021/01/07 05:03:31;;;;;;;7.10;4.75;;;4.00;99.90;;;;;;5039219;28;20203;-84
2021/01/07 05:05:58;;;;;;;7.00;4.88;;;3.80;99.90;;;;;;5039042;28;20207;-82
2021/01/07 05:08:25;;;;;;;7.93;4.88;;;3.70;99.90;;;;;;5037479;28;20558;-84
2021/01/07 05:10:52;;;;;;;9.55;6.07;;;3.90;99.90;;;;;;5038824;28;20318;-82
2021/01/07 05:13:21;;;;;;;7.30;5.00;;;3.90;99.90;;;;;;5040758;28;20234;-81
2021/01/07 05:15:48;;;;;;;7.70;5.20;;;3.90;99.90;;;;;;5040829;28;20207;-84
2021/01/07 05:18:15;;;;;;;7.32;4.97;;;3.80;99.90;;;;;;5046087;28;20187;-82
2021/01/07 05:20:42;;;;;;;7.90;5.20;;;3.80;99.90;;;;;;5055456;28;20218;-78
2021/01/07 05:23:10;;;;;;;7.10;5.10;;;3.90;99.90;;;;;;5056134;28;20195;-78
2021/01/07 05:25:41;;;;;;;8.77;5.18;;;3.80;99.90;;;;;;5056215;28;20214;-80
2021/01/07 05:28:09;;;;;;;8.57;5.85;;;3.80;99.90;;;;;;5054387;28;20277;-81
2021/01/07 05:30:37;;;;;;;8.73;5.07;;;4.00;99.90;;;;;;5043980;28;20214;-82
2021/01/07 05:33:05;;;;;;;9.80;6.28;;;4.20;99.90;;;;;;5064945;22;20653;-84
2021/01/07 05:35:33;;;;;;;7.95;5.10;;;4.20;99.90;;;;;;5032045;28;20210;-83
2021/01/07 05:38:01;;;;;;;8.90;5.72;;;4.00;99.90;;;;;;5036849;28;20257;-83
2021/01/07 05:40:28;;;;;;;8.82;5.57;;;3.80;99.90;;;;;;5034886;28;20199;-84
2021/01/07 05:42:58;;;;;;;9.85;6.90;;;4.00;99.90;;;;;;5040181;28;20204;-83
2021/01/07 05:45:25;;;;;;;8.60;5.85;;;3.90;99.90;;;;;;5035152;28;20210;-83
2021/01/07 05:47:53;;;;;;;9.13;6.10;;;3.70;99.90;;;;;;5034361;28;20196;-78
2021/01/07 05:50:21;;;;;;;9.27;5.60;;;3.70;99.90;;;;;;5036252;28;20265;-79
2021/01/07 05:52:49;;;;;;;10.88;6.28;;;4.10;99.90;;;;;;5033610;28;20238;-80
2021/01/07 05:55:17;;;;;;;11.32;6.55;;;3.90;99.90;;;;;;5035060;28;20223;-83
2021/01/07 05:57:44;;;;;;;11.73;7.45;;;4.10;99.90;;;;;;5035013;28;20207;-82
2021/01/07 06:00:13;;;;;;;10.63;7.15;;;4.20;99.90;;;;;;5037699;28;20206;-82
2021/01/07 06:02:41;;;;;;;10.77;6.50;;;4.00;99.90;;;;;;5038518;28;20214;-83
2021/01/07 06:05:10;;;;;;;10.90;6.95;;;3.80;99.90;;;;;;5036607;28;20203;-83
2021/01/07 06:07:37;;;;;;;10.85;7.43;;;3.70;99.90;;;;;;5038548;28;20280;-83
2021/01/07 06:10:06;;;;;;;9.88;6.53;;;3.60;99.90;;;;;;5037818;28;20203;-83
2021/01/07 06:12:32;;;;;;;9.20;6.68;;;3.80;99.90;;;;;;5035822;28;20685;-84
2021/01/07 06:15:01;;;;;;;13.20;8.75;;;3.90;99.90;;;;;;5034407;28;20687;-84
2021/01/07 06:17:30;;;;;;;10.18;6.65;;;3.80;99.90;;;;;;5037707;28;20203;-83
2021/01/07 06:19:57;;;;;;;13.15;7.05;;;3.60;99.90;;;;;;5041410;28;20302;-84
2021/01/07 06:22:25;;;;;;;11.60;8.15;;;3.80;99.90;;;;;;5050321;28;20219;-82
2021/01/07 06:24:54;;;;;;;11.52;7.43;;;3.80;99.90;;;;;;5038780;28;20216;-81
2021/01/07 06:27:26;;;;;;;13.40;7.10;;;3.90;99.90;;;;;;5039677;28;20207;-81
2021/01/07 06:30:21;;;;;;;10.63;6.95;;;3.70;99.90;;;;;;5039640;28;20681;-81
2021/01/07 06:33:00;;;;;;;15.50;8.20;;;3.80;99.90;;;;;;5039046;28;20261;-82
2021/01/07 06:35:33;;;;;;;12.48;7.95;;;3.70;99.90;;;;;;5044140;28;20204;-81
2021/01/07 06:38:01;;;;;;;15.10;9.05;;;3.90;99.90;;;;;;5045844;28;20348;-82
2021/01/07 06:40:28;;;;;;;11.00;7.57;;;3.70;99.90;;;;;;5041725;28;20233;-82
2021/01/07 06:42:56;;;;;;;12.02;7.93;;;3.80;99.90;;;;;;5044798;28;20207;-81
2021/01/07 06:45:24;;;;;;;12.90;8.38;;;3.60;99.90;;;;;;5050128;28;20210;-81
2021/01/07 06:47:53;;;;;;;14.07;8.75;;;3.70;99.90;;;;;;5042990;28;20218;-81
2021/01/07 06:50:20;;;;;;;14.13;8.13;;;3.80;99.90;;;;;;5049686;28;20208;-81
2021/01/07 06:52:48;;;;;;;17.67;11.15;;;3.90;99.90;;;;;;5047613;28;20199;-82
2021/01/07 06:55:17;;;;;;;11.45;7.72;;;3.90;99.90;;;;;;5038778;28;20227;-81
2021/01/07 06:57:45;;;;;;;14.35;8.98;;;3.80;99.90;;;;;;5037799;28;20203;-83
2021/01/07 07:00:15;;;;;;;12.55;8.20;;;3.90;99.90;;;;;;5038398;28;20226;-82
2021/01/07 07:02:57;;;;;;;13.95;8.45;;;3.90;99.90;;;;;;5043698;28;20245;-82
2021/01/07 07:05:25;;;;;;;12.73;7.57;;;3.80;99.90;;;;;;5044756;28;20764;-82
2021/01/07 07:08:06;;;;;;;13.73;8.52;;;4.00;99.90;;;;;;5036742;28;20730;-82
2021/01/07 07:11:11;;;;;;;15.15;8.88;;;3.80;99.90;;;;;;5036658;28;20298;-81
2021/01/07 07:13:43;;;;;;;14.38;8.55;;;3.90;99.90;;;;;;5037734;28;20231;-82
2021/01/07 07:16:14;;;;;;;11.73;8.30;;;3.90;99.90;;;;;;5039238;28;20211;-80
2021/01/07 07:18:41;;;;;;;13.98;8.98;;;3.70;99.90;;;;;;5040270;28;20206;-82
2021/01/07 07:21:15;;;;;;;15.25;8.80;;;3.80;99.90;;;;;;5036912;28;20204;-79
2021/01/07 07:23:42;;;;;;;13.00;8.57;;;4.10;99.90;;;;;;5037561;28;20223;-81
2021/01/07 07:26:12;;;;;;;15.38;8.75;;;4.30;99.90;;;;;;5039375;28;20203;-83
2021/01/07 07:28:46;;;;;;;15.60;9.25;;;4.30;99.90;;;;;;5044239;28;20283;-81
2021/01/07 07:31:13;;;;;;;13.77;8.77;;;4.10;99.90;;;;;;5044027;28;20540;-81
2021/01/07 07:33:41;;;;;;;15.13;8.85;;;4.20;99.90;;;;;;5037504;28;20246;-82
2021/01/07 07:36:09;;;;;;;11.95;8.13;;;4.30;99.90;;;;;;5032907;28;20199;-81
2021/01/07 07:38:38;;;;;;;14.38;8.80;;;4.10;99.90;;;;;;5037986;28;20233;-80
2021/01/07 07:41:07;;;;;;;14.23;9.57;;;3.90;99.90;;;;;;5043031;28;20239;-81
2021/01/07 07:43:36;;;;;;;13.57;9.23;;;4.00;99.90;;;;;;5036850;28;20266;-82
2021/01/07 07:46:04;;;;;;;14.88;8.55;;;4.00;99.90;;;;;;5018580;28;20258;-83
2021/01/07 07:48:32;;;;;;;12.10;8.75;;;3.90;99.90;;;;;;5018233;28;20204;-82
2021/01/07 07:51:06;;;;;;;16.80;9.45;;;3.90;99.90;;;;;;5036286;28;20215;-82
2021/01/07 07:53:33;;;;;;;15.25;9.80;;;4.10;99.90;;;;;;5037459;28;20222;-81
2021/01/07 07:56:00;;;;;;;13.07;8.05;;;3.90;99.90;;;;;;5041340;28;20233;-81
2021/01/07 07:58:27;;;;;;;15.68;10.20;;;4.10;99.90;;;;;;5043137;28;20705;-81
2021/01/07 08:00:56;;;;;;;10.98;7.40;;;4.10;99.90;;;;;;5035707;28;20207;-81
2021/01/07 08:03:24;;;;;;;13.75;9.45;;;4.20;99.90;;;;;;5034278;28;20288;-81
2021/01/07 08:05:51;;;;;;;13.38;9.38;;;4.30;99.90;;;;;;5031650;28;20206;-82
2021/01/07 08:08:23;;;;;;;15.23;8.93;;;4.10;99.90;;;;;;5031491;28;20199;-82
2021/01/07 08:10:49;;;;;;;15.13;8.90;;;4.10;99.90;;;;;;5032451;28;20207;-82
2021/01/07 08:13:20;;;;;;;14.32;8.98;;;4.20;99.90;;;;;;5032120;28;20223;-82
2021/01/07 08:15:51;;;;;;;14.82;9.82;;;4.00;99.90;;;;;;5034073;28;20204;-83
2021/01/07 08:18:20;;;;;;;14.68;9.10;;;4.00;99.90;;;;;;5037023;28;20203;-82
2021/01/07 08:20:47;;;;;;;14.70;9.07;;;4.00;99.90;;;;;;5038074;28;20199;-82
2021/01/07 08:23:15;;;;;;;14.52;9.35;;;4.20;99.90;;;;;;5039882;28;20231;-82
2021/01/07 08:25:45;;;;;;;15.80;10.73;;;4.20;99.90;;;;;;5028531;28;20208;-82
2021/01/07 08:28:22;;;;;;;15.63;9.75;;;4.20;99.90;;;;;;5018965;28;20255;-82
2021/01/07 08:30:52;;;;;;;16.13;9.90;;;4.20;99.90;;;;;;5033341;28;20195;-82
2021/01/07 08:33:22;;;;;;;19.52;9.80;;;4.30;99.90;;;;;;5037386;28;20304;-82
2021/01/07 08:35:49;;;;;;;12.82;9.27;;;4.10;99.90;;;;;;5041123;28;20241;-82
2021/01/07 08:38:27;;;;;;;18.08;9.70;;;4.20;99.90;;;;;;5047054;28;20210;-80
2021/01/07 08:41:09;;;;;;;14.82;9.02;;;4.10;99.90;;;;;;5039835;28;20199;-82
2021/01/07 08:43:36;;;;;;;15.05;9.23;;;4.00;99.90;;;;;;5037147;28;20604;-81
2021/01/07 08:46:11;;;;;;;16.25;10.15;;;4.30;99.90;;;;;;5036395;28;20207;-82
2021/01/07 08:48:39;;;;;;;16.80;9.63;;;4.00;99.90;;;;;;5044453;28;20199;-81
2021/01/07 08:51:19;;;;;;;15.98;9.98;;;4.30;99.90;;;;;;5040457;28;20599;-81
2021/01/07 08:53:50;;;;;;;14.25;8.90;;;4.20;99.90;;;;;;5039831;28;20276;-82
2021/01/07 08:56:30;;;;;;;14.45;8.77;;;4.20;99.90;;;;;;5039976;28;20207;-82
2021/01/07 08:59:19;;;;;;;13.82;8.65;;;4.30;99.90;;;;;;5033926;28;20207;-82
2021/01/07 09:01:46;;;;;;;14.23;9.07;;;4.30;99.90;;;;;;5039789;28;20208;-83
2021/01/07 09:04:24;;;;;;;13.80;7.90;;;4.60;99.90;;;;;;5040129;28;20223;-82
2021/01/07 09:06:58;;;;;;;13.52;8.27;;;4.50;99.90;;;;;;5039710;28;20217;-83
2021/01/07 09:09:25;;;;;;;12.77;7.80;;;4.50;99.90;;;;;;5042693;28;20210;-81
2021/01/07 09:12:06;;;;;;;13.00;7.85;;;4.50;99.90;;;;;;5045245;28;20216;-82
2021/01/07 09:14:46;;;;;;;13.00;7.45;;;4.30;99.90;;;;;;5044171;28;20292;-81
2021/01/07 09:17:12;;;;;;;10.70;7.07;;;4.50;99.90;;;;;;5047386;28;20199;-83
2021/01/07 09:19:40;;;;;;;11.45;7.25;;;4.40;99.90;;;;;;5043226;28;20230;-82
2021/01/07 09:22:06;;;;;;;12.18;8.30;;;4.60;99.90;;;;;;5044922;28;20199;-81
2021/01/07 09:24:37;;;;;;;12.75;8.10;;;4.50;99.90;;;;;;5040883;28;20218;-82
2021/01/07 09:27:08;;;;;;;11.70;7.70;;;4.60;99.90;;;;;;5039979;28;20211;-83
2021/01/07 09:29:35;;;;;;;12.73;7.57;;;4.60;99.90;;;;;;5039737;28;20211;-81
2021/01/07 09:32:02;;;;;;;12.80;7.90;;;4.60;99.90;;;;;;5039231;28;20216;-83
2021/01/07 09:34:28;;;;;;;12.10;7.85;;;4.20;99.90;;;;;;5039441;28;20904;-83
2021/01/07 09:37:01;;;;;;;12.50;7.40;;;4.60;99.90;;;;;;5039392;28;20214;-84
2021/01/07 09:39:28;;;;;;;11.68;7.25;;;4.70;99.90;;;;;;5034995;28;20294;-83
2021/01/07 09:41:55;;;;;;;13.38;7.00;;;4.70;99.90;;;;;;5034932;28;20200;-83
2021/01/07 09:44:21;;;;;;;12.15;7.50;;;4.90;99.90;;;;;;5034504;28;20271;-82
2021/01/07 09:46:52;;;;;;;13.38;8.07;;;4.70;99.90;;;;;;5035016;28;20207;-82
2021/01/07 09:49:19;;;;;;;12.32;7.38;;;4.80;99.90;;;;;;5035620;28;20325;-82
2021/01/07 09:51:46;;;;;;;10.95;7.32;;;4.60;99.90;;;;;;5038491;28;20203;-82
2021/01/07 09:54:14;;;;;;;12.00;7.55;;;4.80;99.90;;;;;;5038533;28;20233;-83
2021/01/07 09:56:40;;;;;;;12.90;7.88;;;4.90;99.90;;;;;;5033674;28;20214;-84
2021/01/07 09:59:07;;;;;;;12.52;7.80;;;4.80;99.90;;;;;;5043312;28;20199;-78
2021/01/07 10:01:34;;;;;;;14.23;9.05;;;4.60;99.90;;;;;;5042158;28;20231;-81
2021/01/07 10:04:01;;;;;;;12.27;8.38;;;4.70;99.90;;;;;;5043605;28;20219;-80
2021/01/07 10:06:27;;;;;;;12.90;8.57;;;4.90;99.90;;;;;;5043458;28;20203;-84
2021/01/07 10:08:54;;;;;;;12.98;8.20;;;4.90;99.90;;;;;;5042412;28;20251;-82
2021/01/07 10:11:21;;;;;;;14.40;8.10;;;4.70;99.90;;;;;;5041672;28;20557;-82
2021/01/07 10:13:48;;;;;;;11.52;7.38;;;4.80;99.90;;;;;;5034684;28;20241;-78
2021/01/07 10:16:14;;;;;;;12.80;8.10;;;4.70;99.90;;;;;;5033913;28;20207;-78
2021/01/07 10:18:42;;;;;;;13.15;8.27;;;4.90;99.90;;;;;;5039117;28;20535;-84
2021/01/07 10:21:10;;;;;;;13.10;8.80;;;4.90;99.90;;;;;;5040820;28;20233;-83
2021/01/07 10:23:41;;;;;;;12.65;8.77;;;4.80;99.90;;;;;;5035145;28;20245;-84
2021/01/07 10:26:15;;;;;;;17.17;8.15;;;4.90;99.90;;;;;;5036274;28;20207;-84
2021/01/07 10:28:45;;;;;;;13.35;8.30;;;5.20;99.90;;;;;;5035548;28;20235;-83
2021/01/07 10:31:12;;;;;;;11.27;8.30;;;5.20;99.90;;;;;;5033356;28;20210;-79
2021/01/07 10:33:40;;;;;;;11.85;7.97;;;5.00;99.90;;;;;;5033677;28;20322;-83
2021/01/07 10:36:07;;;;;;;11.15;7.65;;;5.10;99.90;;;;;;5034794;28;20211;-79
2021/01/07 10:38:36;;;;;;;13.52;8.93;;;5.10;99.90;;;;;;5035188;28;20207;-79
2021/01/07 10:41:05;;;;;;;12.35;7.97;;;5.20;99.90;;;;;;5034816;28;20214;-84
2021/01/07 10:43:33;;;;;;;11.27;7.40;;;5.20;99.90;;;;;;5039871;28;20224;-86
2021/01/07 10:46:01;;;;;;;12.57;7.57;;;5.20;99.90;;;;;;5037485;28;20245;-81
2021/01/07 10:48:30;;;;;;;13.80;7.93;;;5.10;99.90;;;;;;5038334;28;20203;-85
2021/01/07 10:50:59;;;;;;;11.77;7.72;;;5.10;99.90;;;;;;5040659;28;20199;-85
2021/01/07 10:54:03;;;;;;;13.07;8.88;;;5.30;99.90;;;;;;5051012;28;20229;-86
2021/01/07 10:57:01;;;;;;;10.25;6.78;;;5.20;99.90;;;;;;5041284;28;20203;-83
2021/01/07 10:59:47;;;;;;;16.60;8.77;;;5.30;99.90;;;;;;5033647;28;20333;-80
2021/01/07 11:02:25;;;;;;;10.60;7.28;;;5.40;99.90;;;;;;5033377;28;20211;-79
2021/01/07 11:05:10;;;;;;;11.02;7.50;;;5.40;99.90;;;;;;5032080;28;20223;-78
2021/01/07 11:07:58;;;;;;;13.50;8.05;;;5.40;99.90;;;;;;5031272;28;20289;-79
2021/01/07 11:10:25;;;;;;;14.25;8.45;;;5.50;99.90;;;;;;5034732;28;20239;-79
2021/01/07 11:12:57;;;;;;;11.18;7.13;;;5.30;99.90;;;;;;5035896;28;20214;-79
2021/01/07 11:15:27;;;;;;;10.65;7.15;;;5.60;99.90;;;;;;5032455;28;20269;-84
2021/01/07 11:17:58;;;;;;;11.13;6.50;;;5.50;99.90;;;;;;5028824;28;20210;-82
2021/01/07 11:20:27;;;;;;;10.13;6.90;;;5.30;99.90;;;;;;5033447;28;20199;-80
2021/01/07 11:22:55;;;;;;;12.40;6.28;;;5.50;99.90;;;;;;5027610;28;20214;-79
2021/01/07 11:25:22;;;;;;;9.45;5.88;;;5.60;99.90;;;;;;5034867;28;20282;-79
2021/01/07 11:27:51;;;;;;;22.95;9.82;;;5.30;99.90;;;;;;5032460;28;20265;-79
2021/01/07 11:30:18;;;;;;;15.65;7.43;;;5.50;99.90;;;;;;5032426;28;20253;-79
2021/01/07 11:32:46;;;;;;;13.35;6.03;;;5.40;99.90;;;;;;5031979;28;20219;-83
2021/01/07 11:35:14;;;;;;;10.65;6.35;;;5.60;99.90;;;;;;5034189;28;20693;-79
2021/01/07 11:37:54;;;;;;;10.38;6.80;;;5.50;99.90;;;;;;5032607;28;20692;-77
2021/01/07 11:40:39;;;;;;;9.55;6.80;;;5.50;99.90;;;;;;5030771;28;20215;-80
2021/01/07 11:43:38;;;;;;;13.75;6.50;;;5.60;99.90;;;;;;5030717;28;20231;-81
2021/01/07 11:46:11;;;;;;;9.90;6.35;;;5.40;99.90;;;;;;5036624;28;20214;-78
2021/01/07 11:48:42;;;;;;;10.05;6.53;;;5.30;99.90;;;;;;5039356;28;20206;-79
2021/01/07 11:51:11;;;;;;;9.45;6.05;;;5.50;99.90;;;;;;5038711;28;20227;-86
2021/01/07 11:53:38;;;;;;;10.00;6.07;;;5.40;99.90;;;;;;5041518;28;20242;-84
2021/01/07 11:56:05;;;;;;;9.75;5.82;;;5.50;99.90;;;;;;5036774;28;20653;-88
2021/01/07 11:58:35;;;;;;;10.10;6.45;;;5.30;99.90;;;;;;5035118;28;20208;-86
2021/01/07 12:01:02;;;;;;;12.57;7.85;;;5.20;99.90;;;;;;5041130;28;20239;-86
2021/01/07 12:03:29;;;;;;;9.50;5.78;;;5.70;99.90;;;;;;5034686;28;20227;-86
2021/01/07 12:06:03;;;;;;;9.88;6.18;;;5.50;99.90;;;;;;5034085;28;20554;-87
2021/01/07 12:08:54;;;;;;;10.18;6.88;;;5.70;99.90;;;;;;5027358;28;20215;-85
2021/01/07 12:11:24;;;;;;;11.82;7.25;;;5.50;99.90;;;;;;5034493;28;20225;-85
2021/01/07 12:13:58;;;;;;;10.02;6.47;;;5.50;99.90;;;;;;5036157;28;20238;-84
2021/01/07 12:16:29;;;;;;;13.23;6.78;;;5.40;99.90;;;;;;5034881;28;20213;-87
2021/01/07 12:18:57;;;;;;;10.23;6.75;;;5.60;99.90;;;;;;5033251;28;20199;-85
2021/01/07 12:21:24;;;;;;;10.25;6.78;;;5.60;99.90;;;;;;5034246;28;20206;-85
2021/01/07 12:23:51;;;;;;;9.50;6.40;;;5.70;99.90;;;;;;5039977;28;20234;-83
2021/01/07 12:26:20;;;;;;;14.65;7.95;;;5.70;99.90;;;;;;5040375;28;20723;-85
2021/01/07 12:28:52;;;;;;;12.40;6.82;;;5.80;99.90;;;;;;5041352;28;20207;-79
2021/01/07 12:31:19;;;;;;;15.40;9.63;;;5.60;99.90;;;;;;5039658;28;20235;-77
2021/01/07 12:34:03;;;;;;;12.82;8.25;;;5.50;99.90;;;;;;5034725;28;20581;-83
2021/01/07 12:36:47;;;;;;;10.35;6.75;;;5.70;99.90;;;;;;5036664;28;20199;-84
2021/01/07 12:39:29;;;;;;;10.80;6.90;;;5.70;99.90;;;;;;5035429;28;20281;-82
2021/01/07 12:41:57;;;;;;;10.48;6.95;;;5.60;99.90;;;;;;5035749;28;20218;-82
2021/01/07 12:44:31;;;;;;;12.95;7.72;;;5.60;99.90;;;;;;5035221;28;20235;-82
2021/01/07 12:47:01;;;;;;;11.38;7.65;;;5.40;99.90;;;;;;5035556;28;20264;-79
2021/01/07 12:49:31;;;;;;;14.13;8.32;;;5.60;99.90;;;;;;5034268;28;20204;-78
2021/01/07 12:52:00;;;;;;;14.63;8.00;;;5.50;99.90;;;;;;5036124;28;20207;-84
2021/01/07 12:54:34;;;;;;;10.60;6.85;;;5.50;99.90;;;;;;5039934;28;20266;-83
2021/01/07 12:57:05;;;;;;;11.27;7.00;;;5.40;99.90;;;;;;5040804;28;20222;-82
2021/01/07 12:59:39;;;;;;;12.35;7.55;;;5.50;99.90;;;;;;5041852;28;20204;-83
2021/01/07 13:02:20;;;;;;;13.18;7.47;;;5.70;99.90;;;;;;5045743;28;20182;-82